createdAt,value
2023-04-04T00:02:04.304Z,99468.65
2023-04-04T00:04:33.770Z,99463.46
2023-04-04T00:07:02.148Z,99464.33
2023-04-04T00:09:31.176Z,99466.58
2023-04-04T00:12:00.869Z,99468.13
2023-04-04T00:14:29.782Z,99468.48
2023-04-04T00:16:57.881Z,99470.02
2023-04-04T00:19:26.671Z,99467.58
2023-04-04T00:21:55.334Z,99463.09
2023-04-04T00:24:23.433Z,99458.27
2023-04-04T00:26:51.824Z,99458.11
2023-04-04T00:29:24.083Z,99460.55
2023-04-04T00:31:52.336Z,99456.40
2023-04-04T00:34:20.727Z,99457.61
2023-04-04T00:36:48.873Z,99457.80
2023-04-04T00:39:17.418Z,99463.66
2023-04-04T00:41:45.661Z,99465.77
2023-04-04T00:44:13.729Z,99470.27
2023-04-04T00:46:41.937Z,99470.42
2023-04-04T00:49:10.379Z,99469.89
2023-04-04T00:51:38.557Z,99468.00
2023-04-04T00:54:06.731Z,99469.38
2023-04-04T00:56:36.300Z,99467.63
2023-04-04T00:59:04.467Z,99463.30
2023-04-04T01:01:33.293Z,99461.21
2023-04-04T01:04:03.382Z,99460.84
2023-04-04T01:06:33.044Z,99463.61
2023-04-04T01:09:01.646Z,99467.40
2023-04-04T01:11:31.033Z,99468.79
2023-04-04T01:13:59.569Z,99467.41
2023-04-04T01:16:33.417Z,99466.36
2023-04-04T01:19:01.758Z,99463.95
2023-04-04T01:21:30.862Z,99465.32
2023-04-04T01:24:00.159Z,99468.09
2023-04-04T01:26:33.758Z,99466.19
2023-04-04T01:29:04.659Z,99468.45
2023-04-04T01:31:42.424Z,99467.41
2023-04-04T01:34:36.804Z,99471.57
2023-04-04T01:37:16.795Z,99474.70
2023-04-04T01:39:56.436Z,99477.80
2023-04-04T01:42:25.384Z,99483.15
2023-04-04T01:44:56.231Z,99492.16
2023-04-04T01:47:26.127Z,99493.02
2023-04-04T01:49:54.817Z,99492.16
2023-04-04T01:52:23.878Z,99496.84
2023-04-04T01:54:54.329Z,99499.09
2023-04-04T01:57:22.599Z,99499.95
2023-04-04T01:59:50.765Z,99501.16
2023-04-04T02:02:19.194Z,99502.73
2023-04-04T02:04:47.995Z,99499.97
2023-04-04T02:07:18.592Z,99500.50
2023-04-04T02:09:47.640Z,99496.04
2023-04-04T02:12:15.936Z,99493.45
2023-04-04T02:14:44.021Z,99490.88
2023-04-04T02:17:12.674Z,99488.98
2023-04-04T02:19:41.065Z,99486.42
2023-04-04T02:22:09.214Z,99487.64
2023-04-04T02:24:38.130Z,99489.20
2023-04-04T02:27:06.859Z,99484.55
2023-04-04T02:29:36.594Z,99483.52
2023-04-04T02:32:04.722Z,99478.68
2023-04-04T02:34:33.397Z,99475.58
2023-04-04T02:37:02.327Z,99469.88
2023-04-04T02:39:31.052Z,99467.45
2023-04-04T02:41:59.994Z,99463.48
2023-04-04T02:44:28.488Z,99462.11
2023-04-04T02:47:02.834Z,99462.45
2023-04-04T02:49:33.007Z,99459.16
2023-04-04T02:52:01.827Z,99460.89
2023-04-04T02:54:34.588Z,99456.41
2023-04-04T02:57:04.945Z,99459.02
2023-04-04T02:59:33.424Z,99458.86
2023-04-04T03:02:01.904Z,99458.02
2023-04-04T03:04:30.803Z,99461.83
2023-04-04T03:06:59.596Z,99469.09
2023-04-04T03:09:27.649Z,99477.91
2023-04-04T03:11:55.973Z,99481.55
2023-04-04T03:14:26.624Z,99484.66
2023-04-04T03:16:57.003Z,99483.13
2023-04-04T03:19:25.566Z,99486.73
2023-04-04T03:21:54.038Z,99491.59
2023-04-04T03:24:22.783Z,99492.79
2023-04-04T03:26:54.741Z,99496.23
2023-04-04T03:29:23.203Z,99495.37
2023-04-04T03:31:51.270Z,99501.26
2023-04-04T03:34:19.701Z,99505.22
2023-04-04T03:36:53.845Z,99507.47
2023-04-04T03:39:22.816Z,99509.52
2023-04-04T03:41:51.896Z,99508.83
2023-04-04T03:44:19.966Z,99507.13
2023-04-04T03:46:48.074Z,99503.34
2023-04-04T03:49:17.060Z,99503.00
2023-04-04T03:51:45.557Z,99499.90
2023-04-04T03:54:13.672Z,99502.15
2023-04-04T03:56:43.952Z,99499.73
2023-04-04T03:59:12.751Z,99498.69
2023-04-04T04:01:40.905Z,99499.05
2023-04-04T04:04:11.902Z,99496.27
2023-04-04T04:06:44.059Z,99496.09
2023-04-04T04:09:12.884Z,99500.26
2023-04-04T04:11:40.980Z,99504.77
2023-04-04T04:14:09.304Z,99504.74
2023-04-04T04:16:41.724Z,99507.16
2023-04-04T04:19:10.783Z,99506.48
2023-04-04T04:21:42.679Z,99506.65
2023-04-04T04:24:12.088Z,99509.73
2023-04-04T04:26:40.156Z,99514.21
2023-04-04T04:29:09.397Z,99517.65
2023-04-04T04:31:39.646Z,99516.08
2023-04-04T04:34:08.997Z,99519.16
2023-04-04T04:36:39.649Z,99516.57
2023-04-04T04:39:20.698Z,99517.45
2023-04-04T04:42:07.584Z,99515.89
2023-04-04T04:44:38.216Z,99520.36
2023-04-04T04:47:06.373Z,99517.79
2023-04-04T04:49:43.708Z,99521.92
2023-04-04T04:52:13.732Z,99522.27
2023-04-04T04:54:46.989Z,99525.21
2023-04-04T04:57:15.044Z,99524.35
2023-04-04T04:59:44.709Z,99525.05
2023-04-04T05:02:16.341Z,99521.06
2023-04-04T05:04:45.895Z,99523.15
2023-04-04T05:07:15.360Z,99522.30
2023-04-04T05:09:51.105Z,99522.13
2023-04-04T05:12:21.381Z,99522.45
2023-04-04T05:14:51.154Z,99519.15
2023-04-04T05:17:23.494Z,99528.64
2023-04-04T05:19:53.909Z,99527.41
2023-04-04T05:22:23.160Z,99529.64
2023-04-04T05:24:53.991Z,99535.84
2023-04-04T05:27:24.761Z,99542.75
2023-04-04T05:29:59.234Z,99548.11
2023-04-04T05:32:36.353Z,99553.64
2023-04-04T05:35:09.655Z,99556.95
2023-04-04T05:37:41.087Z,99560.41
2023-04-04T05:40:15.701Z,99547.97
2023-04-04T05:42:54.811Z,99532.39
2023-04-04T05:45:26.047Z,99506.63
2023-04-04T05:47:54.428Z,99503.50
2023-04-04T05:50:25.838Z,99531.14
2023-04-04T05:53:03.010Z,99554.30
2023-04-04T05:55:31.782Z,99558.95
2023-04-04T05:58:04.028Z,99545.30
2023-04-04T06:00:45.402Z,99546.66
2023-04-04T06:03:14.329Z,99556.66
2023-04-04T06:05:44.467Z,99567.21
2023-04-04T06:08:14.545Z,99568.59
2023-04-04T06:10:42.739Z,99569.83
2023-04-04T06:13:11.197Z,99571.71
2023-04-04T06:15:41.062Z,99574.47
2023-04-04T06:18:09.428Z,99572.73
2023-04-04T06:20:37.967Z,99573.77
2023-04-04T06:23:06.724Z,99578.40
2023-04-04T06:25:37.785Z,99577.86
2023-04-04T06:28:08.070Z,99575.95
2023-04-04T06:30:40.749Z,99576.95
2023-04-04T06:33:11.880Z,99579.87
2023-04-04T06:35:44.724Z,99575.55
2023-04-04T06:38:13.368Z,99576.07
2023-04-04T06:40:42.731Z,99572.77
2023-04-04T06:43:11.609Z,99567.09
2023-04-04T06:45:44.091Z,99561.90
2023-04-04T06:48:13.544Z,99557.41
2023-04-04T06:50:41.943Z,99563.27
2023-04-04T06:53:14.987Z,99558.43
2023-04-04T06:55:43.431Z,99554.10
2023-04-04T06:58:19.068Z,99549.59
2023-04-04T07:00:47.601Z,99553.53
2023-04-04T07:03:17.875Z,99558.55
2023-04-04T07:05:46.614Z,99554.02
2023-04-04T07:08:15.697Z,99556.23
2023-04-04T07:10:44.128Z,99558.81
2023-04-04T07:13:13.408Z,99560.55
2023-04-04T07:15:48.884Z,99560.19
2023-04-04T07:18:17.152Z,99561.21
2023-04-04T07:20:48.615Z,99566.04
2023-04-04T07:23:19.592Z,99566.38
2023-04-04T07:25:50.132Z,99571.91
2023-04-04T07:28:20.459Z,99571.38
2023-04-04T07:30:49.802Z,99571.68
2023-04-04T07:33:24.738Z,99573.92
2023-04-04T07:35:54.883Z,99582.39
2023-04-04T07:38:29.791Z,99581.02
2023-04-04T07:41:02.411Z,99582.23
2023-04-04T07:43:37.408Z,99581.19
2023-04-04T07:46:10.538Z,99585.14
2023-04-04T07:48:43.059Z,99591.02
2023-04-04T07:51:15.124Z,99590.70
2023-04-04T07:53:44.389Z,99592.95
2023-04-04T07:56:19.676Z,99590.66
2023-04-04T07:58:49.507Z,99586.80
2023-04-04T08:01:17.648Z,99587.61
2023-04-04T08:03:47.181Z,99588.77
2023-04-04T08:06:15.669Z,99587.69
2023-04-04T08:08:47.301Z,99588.50
2023-04-04T08:11:15.686Z,99587.94
2023-04-04T08:13:51.853Z,99591.16
2023-04-04T08:16:28.716Z,99588.67
2023-04-04T08:19:01.214Z,99585.30
2023-04-04T08:21:34.595Z,99586.84
2023-04-04T08:24:07.951Z,99580.58
2023-04-04T08:26:38.687Z,99581.17
2023-04-04T08:29:07.850Z,99576.93
2023-04-04T08:31:36.693Z,99577.38
2023-04-04T08:34:08.227Z,99576.82
2023-04-04T08:36:38.529Z,99577.27
2023-04-04T08:39:07.696Z,99583.78
2023-04-04T08:41:36.838Z,99582.20
2023-04-04T08:44:08.068Z,99581.83
2023-04-04T08:46:43.381Z,99585.09
2023-04-04T08:49:15.158Z,99586.63
2023-04-04T08:51:44.791Z,99589.23
2023-04-04T08:54:15.045Z,99593.20
2023-04-04T08:56:43.680Z,99596.30
2023-04-04T08:59:16.046Z,99602.54
2023-04-04T09:01:45.435Z,99602.34
2023-04-04T09:04:15.200Z,99599.35
2023-04-04T09:06:44.434Z,99599.66
2023-04-04T09:09:12.492Z,99599.45
2023-04-04T09:11:46.040Z,99603.77
2023-04-04T09:14:16.172Z,99605.33
2023-04-04T09:16:44.364Z,99605.31
2023-04-04T09:19:13.326Z,99606.48
2023-04-04T09:21:41.684Z,99600.54
2023-04-04T09:24:11.474Z,99605.03
2023-04-04T09:26:51.960Z,99600.52
2023-04-04T09:29:21.449Z,99601.27
2023-04-04T09:31:50.515Z,99598.88
2023-04-04T09:34:19.637Z,99601.75
2023-04-04T09:36:47.892Z,99604.08
2023-04-04T09:39:21.138Z,99604.02
2023-04-04T09:41:50.591Z,99603.41
2023-04-04T09:44:19.960Z,99606.50
2023-04-04T09:46:52.744Z,99603.01
2023-04-04T09:49:33.593Z,99598.16
2023-04-04T09:52:02.901Z,99596.73
2023-04-04T09:54:31.592Z,99599.30
2023-04-04T09:57:01.981Z,99597.17
2023-04-04T09:59:30.858Z,99593.45
2023-04-04T10:02:02.373Z,99596.69
2023-04-04T10:04:36.200Z,99593.19
2023-04-04T10:07:06.553Z,99598.24
2023-04-04T10:09:37.554Z,99597.42
2023-04-04T10:12:09.962Z,99601.41
2023-04-04T10:14:39.352Z,99596.52
2023-04-04T10:17:10.718Z,99589.54
2023-04-04T10:19:38.867Z,99589.57
2023-04-04T10:22:10.522Z,99587.50
2023-04-04T10:24:38.756Z,99591.65
2023-04-04T10:27:07.732Z,99590.27
2023-04-04T10:29:38.602Z,99587.38
2023-04-04T10:32:08.275Z,99586.13
2023-04-04T10:34:46.181Z,99583.84
2023-04-04T10:37:18.836Z,99582.36
2023-04-04T10:40:05.959Z,99578.04
2023-04-04T10:42:47.207Z,99578.39
2023-04-04T10:45:21.132Z,99576.29
2023-04-04T10:47:51.319Z,99569.76
2023-04-04T10:50:21.475Z,99573.95
2023-04-04T10:52:53.941Z,99579.73
2023-04-04T10:55:23.901Z,99583.09
2023-04-04T10:57:55.665Z,99589.52
2023-04-04T11:00:25.013Z,99590.77
2023-04-04T11:03:02.295Z,99586.45
2023-04-04T11:05:43.188Z,99580.45
2023-04-04T11:08:20.152Z,99582.19
2023-04-04T11:10:49.371Z,99578.58
2023-04-04T11:13:24.157Z,99583.17
2023-04-04T11:16:15.726Z,99582.02
2023-04-04T11:18:51.234Z,99580.46
2023-04-04T11:21:20.815Z,99578.76
2023-04-04T11:23:48.988Z,99577.06
2023-04-04T11:26:35.499Z,99580.08
2023-04-04T11:29:04.511Z,99581.51
2023-04-04T11:31:47.922Z,99581.98
2023-04-04T11:34:29.927Z,99584.77
2023-04-04T11:37:01.996Z,99587.83
2023-04-04T11:39:31.425Z,99584.65
2023-04-04T11:42:14.052Z,99585.13
2023-04-04T11:44:53.740Z,99584.12
2023-04-04T11:47:25.054Z,99585.81
2023-04-04T11:49:53.954Z,99582.30
2023-04-04T11:52:24.041Z,99581.05
2023-04-04T11:54:53.346Z,99579.27
2023-04-04T11:57:24.978Z,99580.80
2023-04-04T11:59:53.866Z,99579.14
2023-04-04T12:02:45.826Z,99581.88
2023-04-04T12:05:24.909Z,99583.90
2023-04-04T12:07:53.232Z,99583.23
2023-04-04T12:10:22.195Z,99586.24
2023-04-04T12:12:50.493Z,99586.66
2023-04-04T12:15:19.766Z,99586.00
2023-04-04T12:17:49.287Z,99585.92
2023-04-04T12:20:17.618Z,99581.38
2023-04-04T12:22:50.578Z,99579.36
2023-04-04T12:25:20.395Z,99577.35
2023-04-04T12:27:51.094Z,99580.17
2023-04-04T12:30:19.779Z,99581.31
2023-04-04T12:32:48.610Z,99581.67
2023-04-04T12:35:17.185Z,99577.25
2023-04-04T12:37:59.019Z,99575.29
2023-04-04T12:40:37.217Z,99572.20
2023-04-04T12:43:09.217Z,99570.61
2023-04-04T12:45:39.371Z,99575.19
2023-04-04T12:48:14.197Z,99579.18
2023-04-04T12:50:54.293Z,99574.27
2023-04-04T12:53:29.948Z,99578.60
2023-04-04T12:56:05.255Z,99574.77
2023-04-04T12:58:36.996Z,99571.45
2023-04-04T13:01:07.249Z,99564.88
2023-04-04T13:03:38.104Z,99562.80
2023-04-04T13:06:16.301Z,99561.02
2023-04-04T13:08:53.952Z,99557.47
2023-04-04T13:11:22.532Z,99557.95
2023-04-04T13:14:02.822Z,99560.01
2023-04-04T13:16:37.135Z,99561.02
2023-04-04T13:19:05.578Z,99559.75
2023-04-04T13:21:34.902Z,99555.91
2023-04-04T13:24:04.234Z,99555.13
2023-04-04T13:26:33.120Z,99551.98
2023-04-04T13:29:01.928Z,99549.44
2023-04-04T13:31:34.882Z,99549.23
2023-04-04T13:34:03.591Z,99544.88
2023-04-04T13:36:31.863Z,99542.73
2023-04-04T13:39:00.747Z,99542.36
2023-04-04T13:41:28.812Z,99542.83
2023-04-04T13:43:58.517Z,99541.82
2023-04-04T13:46:26.673Z,99543.24
2023-04-04T13:48:54.745Z,99547.67
2023-04-04T13:51:24.692Z,99544.75
2023-04-04T13:53:52.851Z,99542.67
2023-04-04T13:56:22.260Z,99540.59
2023-04-04T13:58:51.082Z,99538.64
2023-04-04T14:01:23.538Z,99541.59
2023-04-04T14:03:52.713Z,99538.54
2023-04-04T14:06:21.165Z,99537.04
2023-04-04T14:08:49.291Z,99536.22
2023-04-04T14:11:19.410Z,99534.75
2023-04-04T14:13:48.703Z,99528.71
2023-04-04T14:16:17.019Z,99529.70
2023-04-04T14:18:46.396Z,99526.77
2023-04-04T14:21:14.729Z,99527.52
2023-04-04T14:23:42.823Z,99523.30
2023-04-04T14:26:13.783Z,99521.78
2023-04-04T14:28:42.324Z,99524.28
2023-04-04T14:31:10.574Z,99524.02
2023-04-04T14:33:38.921Z,99522.95
2023-04-04T14:36:07.332Z,99524.16
2023-04-04T14:38:35.576Z,99521.65
2023-04-04T14:41:05.330Z,99521.81
2023-04-04T14:43:35.544Z,99519.22
2023-04-04T14:46:07.398Z,99518.08
2023-04-04T14:48:35.745Z,99523.17
2023-04-04T14:51:05.855Z,99521.32
2023-04-04T14:53:34.482Z,99522.39
2023-04-04T14:56:02.784Z,99519.27
2023-04-04T14:58:34.055Z,99522.23
2023-04-04T15:01:02.790Z,99521.19
2023-04-04T15:03:31.957Z,99522.92
2023-04-04T15:06:03.408Z,99522.05
2023-04-04T15:08:32.799Z,99522.85
2023-04-04T15:11:01.165Z,99522.40
2023-04-04T15:13:30.747Z,99524.31
2023-04-04T15:16:00.383Z,99525.36
2023-04-04T15:18:28.619Z,99529.88
2023-04-04T15:20:59.851Z,99529.18
2023-04-04T15:23:28.246Z,99531.81
2023-04-04T15:25:56.451Z,99528.65
2023-04-04T15:28:27.346Z,99532.61
2023-04-04T15:30:56.684Z,99533.82
2023-04-04T15:33:24.723Z,99531.54
2023-04-04T15:35:52.848Z,99532.77
2023-04-04T15:38:21.598Z,99529.67
2023-04-04T15:40:50.787Z,99529.79
2023-04-04T15:43:18.925Z,99530.98
2023-04-04T15:45:47.471Z,99531.77
2023-04-04T15:48:15.904Z,99527.43
2023-04-04T15:50:45.048Z,99528.96
2023-04-04T15:53:13.769Z,99523.95
2023-04-04T15:55:42.869Z,99520.15
2023-04-04T15:58:10.952Z,99519.43
2023-04-04T16:00:39.288Z,99522.08
2023-04-04T16:03:14.071Z,99520.76
2023-04-04T16:05:42.294Z,99519.45
2023-04-04T16:08:16.345Z,99515.42
2023-04-04T16:10:44.929Z,99513.73
2023-04-04T16:13:13.483Z,99511.17
2023-04-04T16:15:46.801Z,99508.14
2023-04-04T16:18:16.149Z,99503.54
2023-04-04T16:20:44.498Z,99502.89
2023-04-04T16:23:18.545Z,99501.38
2023-04-04T16:25:47.294Z,99497.42
2023-04-04T16:28:15.693Z,99494.27
2023-04-04T16:30:44.107Z,99490.80
2023-04-04T16:33:12.668Z,99488.21
2023-04-04T16:35:40.710Z,99484.92
2023-04-04T16:38:09.181Z,99485.97
2023-04-04T16:40:37.836Z,99484.61
2023-04-04T16:43:06.166Z,99481.39
2023-04-04T16:45:34.298Z,99479.02
2023-04-04T16:48:02.679Z,99477.80
2023-04-04T16:50:32.224Z,99476.45
2023-04-04T16:53:01.052Z,99473.04
2023-04-04T16:55:29.576Z,99472.89
2023-04-04T16:57:58.523Z,99471.04
2023-04-04T17:00:26.513Z,99470.36
2023-04-04T17:03:02.481Z,99470.02
2023-04-04T17:05:31.083Z,99468.91
2023-04-04T17:07:59.237Z,99469.20
2023-04-04T17:10:27.330Z,99464.30
2023-04-04T17:12:58.311Z,99465.20
2023-04-04T17:15:27.362Z,99464.84
2023-04-04T17:17:56.243Z,99462.80
2023-04-04T17:20:24.421Z,99461.46
2023-04-04T17:22:54.033Z,99458.52
2023-04-04T17:25:26.805Z,99461.13
2023-04-04T17:27:55.790Z,99461.86
2023-04-04T17:30:24.025Z,99464.18
2023-04-04T17:32:54.478Z,99458.51
2023-04-04T17:35:22.646Z,99454.91
2023-04-04T17:37:52.238Z,99455.65
2023-04-04T17:40:20.814Z,99457.36
2023-04-04T17:42:49.320Z,99455.96
2023-04-04T17:45:18.540Z,99461.70
2023-04-04T17:47:47.082Z,99465.86
2023-04-04T17:50:15.962Z,99466.41
2023-04-04T17:52:44.194Z,99469.15
2023-04-04T17:55:13.616Z,99472.92
2023-04-04T17:57:44.879Z,99473.00
2023-04-04T18:00:13.924Z,99469.50
2023-04-04T18:02:44.731Z,99456.87
2023-04-04T18:05:13.452Z,99457.55
2023-04-04T18:07:42.120Z,99458.96
2023-04-04T18:10:11.240Z,99456.56
2023-04-04T18:12:44.162Z,99459.72
2023-04-04T18:15:12.784Z,99458.02
2023-04-04T18:17:42.527Z,99456.98
2023-04-04T18:20:14.282Z,99454.58
2023-04-04T18:22:47.432Z,99455.25
2023-04-04T18:25:18.005Z,99449.71
2023-04-04T18:27:46.319Z,99443.60
2023-04-04T18:30:14.529Z,99440.45
2023-04-04T18:32:43.097Z,99443.14
2023-04-04T18:35:11.231Z,99440.11
2023-04-04T18:37:41.154Z,99446.36
2023-04-04T18:40:09.259Z,99452.88
2023-04-04T18:42:38.046Z,99457.30
2023-04-04T18:45:08.227Z,99458.85
2023-04-04T18:47:38.025Z,99462.34
2023-04-04T18:50:07.401Z,99468.73
2023-04-04T18:52:36.561Z,99475.52
2023-04-04T18:55:14.066Z,99481.23
2023-04-04T18:57:48.515Z,99485.19
2023-04-04T19:00:16.978Z,99487.63
2023-04-04T19:02:49.922Z,99487.42
2023-04-04T19:05:23.461Z,99487.74
2023-04-04T19:07:53.846Z,99489.42
2023-04-04T19:10:22.219Z,99488.00
2023-04-04T19:12:51.223Z,99480.00
2023-04-04T19:15:19.327Z,99480.17
2023-04-04T19:17:51.108Z,99474.08
2023-04-04T19:20:19.266Z,99464.41
2023-04-04T19:22:47.401Z,99455.44
2023-04-04T19:25:15.612Z,99458.75
2023-04-04T19:27:43.821Z,99455.14
2023-04-04T19:30:33.786Z,99452.95
2023-04-04T19:33:03.470Z,99449.91
2023-04-04T19:35:53.616Z,99453.65
2023-04-04T19:38:24.872Z,99451.63
2023-04-04T19:40:55.226Z,99455.73
2023-04-04T19:43:24.180Z,99457.79
2023-04-04T19:45:58.278Z,99462.52
2023-04-04T19:48:43.723Z,99466.16
2023-04-04T19:51:17.924Z,99467.66
2023-04-04T19:53:50.713Z,99470.73
2023-04-04T19:56:21.451Z,99467.70
2023-04-04T19:59:02.231Z,99477.30
2023-04-04T20:01:34.401Z,99480.90
2023-04-04T20:04:09.921Z,99490.22
2023-04-04T20:06:41.582Z,99490.71
2023-04-04T20:09:40.251Z,99497.10
2023-04-04T20:12:10.392Z,99500.73
2023-04-04T20:14:40.189Z,99496.05
2023-04-04T20:17:09.876Z,99495.02
2023-04-04T20:19:38.460Z,99495.02
2023-04-04T20:22:06.759Z,99495.02
2023-04-04T20:24:35.269Z,99491.02
2023-04-04T20:27:04.067Z,99490.66
2023-04-04T20:29:37.384Z,99485.85
2023-04-04T20:32:09.065Z,99482.73
2023-04-04T20:34:42.586Z,99483.05
2023-04-04T20:37:14.410Z,99479.27
2023-04-04T20:39:44.086Z,99479.29
2023-04-04T20:42:50.826Z,99476.52
2023-04-04T20:45:28.222Z,99471.36
2023-04-04T20:48:01.737Z,99468.09
2023-04-04T20:50:30.029Z,99467.77
2023-04-04T20:52:59.014Z,99465.04
2023-04-04T20:55:28.291Z,99463.74
2023-04-04T20:58:10.045Z,99456.84
2023-04-04T21:00:42.220Z,99451.35
2023-04-04T21:03:32.862Z,99447.09
2023-04-04T21:06:15.326Z,99444.52
2023-04-04T21:08:50.715Z,99442.25
2023-04-04T21:11:28.837Z,99438.61
2023-04-04T21:13:57.076Z,99434.11
2023-04-04T21:16:27.149Z,99431.03
2023-04-04T21:19:00.700Z,99429.63
2023-04-04T21:21:29.721Z,99431.20
2023-04-04T21:24:00.432Z,99428.84
2023-04-04T21:26:32.208Z,99430.98
2023-04-04T21:29:23.653Z,99425.70
2023-04-04T21:31:53.981Z,99426.44
2023-04-04T21:34:23.829Z,99425.30
2023-04-04T21:36:55.586Z,99424.07
2023-04-04T21:39:29.723Z,99428.04
2023-04-04T21:41:59.840Z,99424.44
2023-04-04T21:44:27.903Z,99416.64
2023-04-04T21:46:56.949Z,99415.48
2023-04-04T21:49:25.442Z,99412.88
2023-04-04T21:51:53.596Z,99414.30
2023-04-04T21:54:22.869Z,99409.80
2023-04-04T21:56:51.145Z,99403.00
2023-04-04T21:59:20.219Z,99397.09
2023-04-04T22:01:50.219Z,99394.80
2023-04-04T22:04:19.736Z,99389.58
2023-04-04T22:06:47.923Z,99389.89
2023-04-04T22:09:16.059Z,99388.19
2023-04-04T22:11:44.601Z,99384.56
2023-04-04T22:14:18.150Z,99386.44
2023-04-04T22:16:46.651Z,99390.41
2023-04-04T22:19:16.123Z,99394.58
2023-04-04T22:21:48.364Z,99391.48
2023-04-04T22:24:18.842Z,99391.98
2023-04-04T22:26:47.675Z,99390.91
2023-04-04T22:29:16.359Z,99394.54
2023-04-04T22:31:45.760Z,99395.85
2023-04-04T22:34:15.236Z,99399.45
2023-04-04T22:36:46.102Z,99396.01
2023-04-04T22:39:16.505Z,99399.80
2023-04-04T22:41:45.152Z,99401.89
2023-04-04T22:44:13.472Z,99402.74
2023-04-04T22:46:41.697Z,99401.86
2023-04-04T22:49:10.383Z,99400.81
2023-04-04T22:51:45.118Z,99393.87
2023-04-04T22:54:15.781Z,99385.73
2023-04-04T22:56:44.694Z,99380.58
2023-04-04T22:59:18.084Z,99375.70
2023-04-04T23:01:47.659Z,99375.29
2023-04-04T23:04:17.908Z,99378.79
2023-04-04T23:06:46.514Z,99372.13
2023-04-04T23:09:14.709Z,99366.44
2023-04-04T23:11:43.023Z,99363.27
2023-04-04T23:14:14.994Z,99357.72
2023-04-04T23:16:44.449Z,99344.79
2023-04-04T23:19:13.764Z,99343.74
2023-04-04T23:21:49.477Z,99345.61
2023-04-04T23:24:17.918Z,99347.20
2023-04-04T23:26:46.257Z,99342.78
2023-04-04T23:29:14.612Z,99340.70
2023-04-04T23:31:42.679Z,99345.56
2023-04-04T23:34:11.040Z,99360.28
2023-04-04T23:36:39.232Z,99375.79
2023-04-04T23:39:11.947Z,99373.48
2023-04-04T23:41:41.032Z,99359.27
2023-04-04T23:44:09.162Z,99344.16
2023-04-04T23:46:37.753Z,99339.07
2023-04-04T23:49:06.048Z,99347.48
2023-04-04T23:51:39.209Z,99352.35
2023-04-04T23:54:08.241Z,99347.68
2023-04-04T23:56:36.523Z,99342.21
2023-04-04T23:59:05.120Z,99345.20
